Time;durP1;ratioP1;P1;durP2;ratioP2;P2;SDS_P1;SDS_P2;PMS_P1;PMS_P2;Temp;Humidity;BMP_temperature;BMP_pressure;BME280_temperature;BME280_humidity;BME280_pressure;Samples;Min_cycle;Max_cycle;Signal;HPM_P1;HPM_P2
2023/09/28 00:00:49;;;;;;;1.80;1.55;;;21.40;66.20;;;;;;6252755;28;20105;-70
2023/09/28 00:03:50;;;;;;;2.20;1.63;;;21.40;66.20;;;;;;6261870;28;20484;-69
2023/09/28 00:06:51;;;;;;;2.10;1.80;;;21.40;66.20;;;;;;6253235;28;20151;-69
2023/09/28 00:09:52;;;;;;;2.30;1.75;;;21.40;66.20;;;;;;6270035;28;20423;-69
2023/09/28 00:12:53;;;;;;;1.90;1.63;;;21.40;66.20;;;;;;6251531;28;20025;-69
2023/09/28 00:15:54;;;;;;;3.17;1.90;;;21.40;66.20;;;;;;6268108;28;20077;-69
2023/09/28 00:18:55;;;;;;;1.98;1.60;;;21.40;66.20;;;;;;6267929;28;20056;-69
2023/09/28 00:21:56;;;;;;;1.85;1.60;;;21.40;66.20;;;;;;6268317;28;20474;-69
2023/09/28 00:24:57;;;;;;;1.90;1.67;;;21.40;66.20;;;;;;6256231;28;20017;-69
2023/09/28 00:27:57;;;;;;;2.20;1.85;;;21.40;66.20;;;;;;6251996;28;20029;-69
2023/09/28 00:30:58;;;;;;;2.47;1.70;;;21.40;66.20;;;;;;6259690;28;20028;-69
2023/09/28 00:34:00;;;;;;;2.15;1.80;;;21.40;66.20;;;;;;6253237;28;20108;-69
2023/09/28 00:37:00;;;;;;;2.42;1.75;;;21.40;66.20;;;;;;6253138;28;20021;-69
2023/09/28 00:40:08;;;;;;;2.00;1.80;;;21.40;66.20;;;;;;6259863;28;20042;-69
2023/09/28 00:43:10;;;;;;;2.80;1.77;;;21.40;66.20;;;;;;6265734;28;20099;-70
2023/09/28 00:46:16;;;;;;;1.88;1.70;;;21.40;66.20;;;;;;6254921;28;20017;-69
2023/09/28 00:49:17;;;;;;;2.30;1.90;;;21.40;66.20;;;;;;6259335;28;20039;-69
2023/09/28 00:52:18;;;;;;;2.15;1.88;;;21.40;66.20;;;;;;6256907;28;20017;-70
2023/09/28 00:55:20;;;;;;;1.92;1.73;;;21.40;66.20;;;;;;6259386;28;20018;-69
2023/09/28 00:58:23;;;;;;;3.80;1.60;;;21.40;66.20;;;;;;6259396;28;20070;-69
2023/09/28 01:01:26;;;;;;;2.85;2.00;;;21.40;66.20;;;;;;6262200;28;20032;-70
2023/09/28 01:04:27;;;;;;;2.33;1.70;;;21.40;66.20;;;;;;6260394;28;20025;-69
2023/09/28 01:07:29;;;;;;;2.15;1.70;;;21.40;66.20;;;;;;6260445;28;20025;-69
2023/09/28 01:10:30;;;;;;;1.73;1.63;;;21.40;66.20;;;;;;6259956;28;20028;-68
2023/09/28 01:13:31;;;;;;;2.30;1.73;;;21.40;66.20;;;;;;6261025;28;20025;-69
2023/09/28 01:16:32;;;;;;;2.45;1.90;;;21.40;66.20;;;;;;6264636;28;20055;-69
2023/09/28 01:19:34;;;;;;;2.05;1.63;;;21.40;66.20;;;;;;6267393;28;20048;-69
2023/09/28 01:22:34;;;;;;;1.92;1.67;;;21.40;66.20;;;;;;6254821;28;20040;-69
2023/09/28 01:25:36;;;;;;;2.08;1.63;;;21.40;66.20;;;;;;6264233;28;20051;-69
2023/09/28 01:28:38;;;;;;;2.42;1.90;;;21.40;66.20;;;;;;6258975;28;20075;-69
2023/09/28 01:31:39;;;;;;;2.05;1.83;;;21.40;66.20;;;;;;6265869;28;20506;-69
2023/09/28 01:34:39;;;;;;;2.45;2.05;;;21.40;66.20;;;;;;6258841;28;20025;-69
2023/09/28 01:37:52;;;;;;;2.28;2.00;;;21.40;66.20;;;;;;6266370;28;20350;-69
2023/09/28 01:40:53;;;;;;;3.08;1.92;;;21.40;66.30;;;;;;6268140;28;20036;-69
2023/09/28 01:43:53;;;;;;;2.10;1.80;;;21.40;66.20;;;;;;6268098;28;20480;-69
2023/09/28 01:46:55;;;;;;;2.05;1.85;;;21.40;66.30;;;;;;6266174;28;20079;-69
2023/09/28 01:49:55;;;;;;;2.20;2.00;;;21.40;66.30;;;;;;6258430;28;20430;-69
2023/09/28 01:52:57;;;;;;;2.47;1.90;;;21.40;66.30;;;;;;6249886;28;20110;-69
2023/09/28 01:56:02;;;;;;;1.73;1.63;;;21.40;66.30;;;;;;6243871;28;20022;-69
2023/09/28 01:59:03;;;;;;;2.40;2.03;;;21.40;66.20;;;;;;6248607;28;20045;-69
2023/09/28 02:02:04;;;;;;;2.13;1.90;;;21.40;66.30;;;;;;6252605;28;20057;-69
2023/09/28 02:05:07;;;;;;;2.10;1.83;;;21.40;66.30;;;;;;6259856;28;20104;-69
2023/09/28 02:08:09;;;;;;;2.20;1.92;;;21.40;66.30;;;;;;6264062;28;20025;-69
2023/09/28 02:11:10;;;;;;;1.92;1.70;;;21.40;66.30;;;;;;6253634;28;20224;-69
2023/09/28 02:14:11;;;;;;;2.00;1.80;;;21.40;66.30;;;;;;6266444;28;20407;-69
2023/09/28 02:17:12;;;;;;;2.40;1.83;;;21.40;66.30;;;;;;6258897;28;20029;-69
2023/09/28 02:20:19;;;;;;;2.70;1.83;;;21.40;66.30;;;;;;6264133;28;20147;-69
2023/09/28 02:23:21;;;;;;;2.10;1.80;;;21.40;66.30;;;;;;6261365;28;20028;-69
2023/09/28 02:26:22;;;;;;;2.53;2.03;;;21.40;66.30;;;;;;6267202;28;20588;-71
2023/09/28 02:29:23;;;;;;;2.80;2.17;;;21.40;66.30;;;;;;6267202;28;20041;-69
2023/09/28 02:32:23;;;;;;;2.05;1.70;;;21.40;66.40;;;;;;6258412;28;20031;-69
2023/09/28 02:35:24;;;;;;;2.22;1.88;;;21.40;66.30;;;;;;6263293;28;20519;-69
2023/09/28 02:38:25;;;;;;;1.70;1.60;;;21.40;66.30;;;;;;6270336;28;20121;-69
2023/09/28 02:41:25;;;;;;;1.92;1.70;;;21.40;66.30;;;;;;6262927;28;20025;-69
2023/09/28 02:44:26;;;;;;;1.80;1.70;;;21.40;66.30;;;;;;6272115;28;20028;-69
2023/09/28 02:47:27;;;;;;;2.45;1.60;;;21.40;66.30;;;;;;6270953;28;20553;-69
2023/09/28 02:50:27;;;;;;;2.10;1.83;;;21.40;66.30;;;;;;6258911;28;20473;-69
2023/09/28 02:53:29;;;;;;;2.17;1.90;;;21.40;66.40;;;;;;6262678;28;20025;-69
2023/09/28 02:56:30;;;;;;;2.28;1.85;;;21.40;66.30;;;;;;6260620;28;20522;-69
2023/09/28 02:59:32;;;;;;;2.25;1.85;;;21.40;66.40;;;;;;6264876;28;20026;-70
2023/09/28 03:02:33;;;;;;;2.35;1.88;;;21.40;66.30;;;;;;6260492;28;20025;-69
2023/09/28 03:05:34;;;;;;;2.05;1.73;;;21.40;66.30;;;;;;6262081;28;20083;-69
2023/09/28 03:08:35;;;;;;;2.10;1.70;;;21.40;66.30;;;;;;6261686;28;20400;-69
2023/09/28 03:11:36;;;;;;;1.90;1.70;;;21.40;66.20;;;;;;6254164;28;20505;-69
2023/09/28 03:14:37;;;;;;;2.05;1.77;;;21.40;66.20;;;;;;6262636;28;20025;-69
2023/09/28 03:17:39;;;;;;;2.63;2.15;;;21.40;66.20;;;;;;6256020;28;20036;-69
2023/09/28 03:20:45;;;;;;;2.30;1.80;;;21.40;66.20;;;;;;6255079;28;20029;-69
2023/09/28 03:23:45;;;;;;;1.83;1.70;;;21.40;66.20;;;;;;6270271;28;20044;-68
2023/09/28 03:26:46;;;;;;;2.30;1.95;;;21.40;66.20;;;;;;6255791;28;20021;-69
2023/09/28 03:29:47;;;;;;;2.60;1.77;;;21.40;66.20;;;;;;6267570;28;20549;-69
2023/09/28 03:32:48;;;;;;;1.98;1.70;;;21.40;66.20;;;;;;6265142;28;20034;-69
2023/09/28 03:35:48;;;;;;;3.45;2.17;;;21.40;66.20;;;;;;6269211;28;20021;-69
2023/09/28 03:38:49;;;;;;;1.95;1.73;;;21.50;66.40;;;;;;6261296;28;20045;-70
2023/09/28 03:41:49;;;;;;;2.33;2.03;;;21.40;66.20;;;;;;6262870;28;20017;-69
2023/09/28 03:44:52;;;;;;;2.30;1.80;;;21.40;66.20;;;;;;6263274;28;20049;-69
2023/09/28 03:47:53;;;;;;;2.38;1.88;;;21.40;66.30;;;;;;6270385;28;20064;-69
2023/09/28 03:50:54;;;;;;;2.83;2.00;;;21.40;66.30;;;;;;6262322;28;20067;-69
2023/09/28 03:53:55;;;;;;;2.20;2.00;;;21.40;66.30;;;;;;6261384;28;20025;-69
2023/09/28 03:56:55;;;;;;;2.53;1.65;;;21.40;66.20;;;;;;6269380;28;20392;-70
2023/09/28 04:00:40;;;;;;;2.15;1.95;;;21.40;66.30;;;;;;6262225;28;20365;-68
2023/09/28 04:03:41;;;;;;;1.92;1.70;;;21.40;66.20;;;;;;6267114;28;20029;-69
2023/09/28 04:06:41;;;;;;;2.70;2.00;;;21.40;66.20;;;;;;6253379;28;20078;-69
2023/09/28 04:09:42;;;;;;;2.10;1.90;;;21.40;66.20;;;;;;6261322;28;20056;-68
2023/09/28 04:12:43;;;;;;;3.03;2.13;;;21.40;66.20;;;;;;6258987;28;20422;-69
2023/09/28 04:15:44;;;;;;;2.00;1.58;;;21.40;66.20;;;;;;6255135;28;20072;-69
2023/09/28 04:18:45;;;;;;;2.15;1.90;;;21.40;66.20;;;;;;6267125;28;20024;-69
2023/09/28 04:21:46;;;;;;;2.13;1.90;;;21.40;66.30;;;;;;6267602;28;20083;-69
2023/09/28 04:24:46;;;;;;;1.85;1.58;;;21.40;66.30;;;;;;6268437;28;20024;-69
2023/09/28 04:27:49;;;;;;;2.70;2.08;;;21.40;66.30;;;;;;6261268;28;20494;-69
2023/09/28 04:30:52;;;;;;;2.55;2.03;;;21.40;66.30;;;;;;6269925;28;20384;-69
2023/09/28 04:33:52;;;;;;;1.98;1.77;;;21.40;66.30;;;;;;6253045;28;20480;-69
2023/09/28 04:36:53;;;;;;;1.75;1.65;;;21.40;66.30;;;;;;6260117;28;20036;-69
2023/09/28 04:39:54;;;;;;;1.90;1.70;;;21.40;66.30;;;;;;6262810;28;20431;-69
2023/09/28 04:42:55;;;;;;;2.28;1.83;;;21.40;66.30;;;;;;6268080;28;20039;-69
2023/09/28 04:45:55;;;;;;;1.92;1.73;;;21.40;66.30;;;;;;6259721;28;20021;-69
2023/09/28 04:48:57;;;;;;;2.30;1.70;;;21.40;66.40;;;;;;6269319;28;20688;-70
2023/09/28 04:51:59;;;;;;;2.47;2.00;;;21.40;66.40;;;;;;6263595;28;20021;-69
2023/09/28 04:55:01;;;;;;;2.10;1.67;;;21.40;66.30;;;;;;6259532;28;20033;-69
2023/09/28 04:58:02;;;;;;;2.40;1.80;;;21.40;66.40;;;;;;6259472;28;20009;-70
2023/09/28 05:01:02;;;;;;;1.90;1.70;;;21.40;66.40;;;;;;6243820;28;20540;-68
2023/09/28 05:04:03;;;;;;;2.00;1.80;;;21.40;66.40;;;;;;6253021;28;20029;-69
2023/09/28 05:07:04;;;;;;;2.28;1.83;;;21.40;66.40;;;;;;6260242;28;20041;-69
2023/09/28 05:10:05;;;;;;;4.25;2.67;;;21.40;66.10;;;;;;6269120;28;20025;-68
2023/09/28 05:13:06;;;;;;;3.05;2.00;;;21.40;65.70;;;;;;6268984;28;20108;-68
2023/09/28 05:16:07;;;;;;;2.75;1.80;;;21.50;66.20;;;;;;6269157;28;20024;-69
2023/09/28 05:19:08;;;;;;;5.05;2.17;;;21.40;66.00;;;;;;6269039;28;20049;-68
2023/09/28 05:22:10;;;;;;;3.65;2.40;;;21.40;66.00;;;;;;6269028;28;20031;-68
2023/09/28 05:25:10;;;;;;;8.27;5.05;;;21.40;65.80;;;;;;6268966;28;20051;-68
2023/09/28 05:28:11;;;;;;;10.10;4.20;;;21.40;65.40;;;;;;6268904;28;20037;-69
2023/09/28 05:31:12;;;;;;;10.48;3.95;;;21.40;65.40;;;;;;6268548;28;20025;-68
2023/09/28 05:34:12;;;;;;;4.07;2.85;;;21.40;66.10;;;;;;6268801;28;20147;-68
2023/09/28 05:37:13;;;;;;;14.95;6.07;;;21.40;65.40;;;;;;6269479;28;20492;-68
2023/09/28 05:40:14;;;;;;;9.45;6.47;;;21.30;63.90;;;;;;6275144;28;20392;-69
2023/09/28 05:43:15;;;;;;;9.43;4.13;;;21.30;63.50;;;;;;6268809;28;20165;-69
2023/09/28 05:46:16;;;;;;;7.45;4.82;;;21.30;65.30;;;;;;6280107;28;20017;-73
2023/09/28 05:49:16;;;;;;;14.77;5.05;;;21.40;64.30;;;;;;6264397;28;20079;-73
2023/09/28 05:52:18;;;;;;;11.15;5.35;;;21.40;62.60;;;;;;6273890;28;20866;-72
2023/09/28 05:55:19;;;;;;;7.45;4.22;;;21.40;63.60;;;;;;6266112;28;20116;-72
2023/09/28 05:58:20;;;;;;;6.78;4.72;;;21.40;64.80;;;;;;6266165;28;20071;-69
2023/09/28 06:01:22;;;;;;;6.63;4.43;;;21.40;64.60;;;;;;6265432;28;20021;-69
2023/09/28 06:04:25;;;;;;;8.73;5.30;;;21.40;64.80;;;;;;6262892;28;20060;-69
2023/09/28 06:07:25;;;;;;;6.53;4.80;;;21.40;63.90;;;;;;6266212;28;20032;-69
2023/09/28 06:10:27;;;;;;;6.70;4.40;;;21.40;64.50;;;;;;6252414;28;20030;-69
2023/09/28 06:13:30;;;;;;;6.60;4.65;;;21.40;64.90;;;;;;6253717;28;20469;-69
2023/09/28 06:16:31;;;;;;;11.23;5.05;;;21.40;64.90;;;;;;6266829;28;20416;-69
2023/09/28 06:19:31;;;;;;;7.97;4.70;;;21.40;64.90;;;;;;6261388;28;20021;-69
2023/09/28 06:22:33;;;;;;;6.68;4.35;;;21.40;64.90;;;;;;6264703;28;20033;-69
2023/09/28 06:25:33;;;;;;;7.43;4.40;;;21.40;64.90;;;;;;6266835;28;20021;-69
2023/09/28 06:28:34;;;;;;;6.47;4.45;;;21.40;65.00;;;;;;6253472;28;20044;-68
2023/09/28 06:31:35;;;;;;;7.88;4.57;;;21.40;65.00;;;;;;6268144;28;20399;-69
2023/09/28 06:34:36;;;;;;;6.60;4.65;;;21.40;65.00;;;;;;6261851;28;20539;-69
2023/09/28 06:37:36;;;;;;;8.02;3.97;;;21.40;65.00;;;;;;6269261;28;20052;-68
2023/09/28 06:40:43;;;;;;;7.18;4.10;;;21.40;65.00;;;;;;6260383;28;20487;-69
2023/09/28 06:43:43;;;;;;;8.10;4.30;;;21.40;65.10;;;;;;6261760;28;20518;-69
2023/09/28 06:46:44;;;;;;;6.25;4.13;;;21.40;65.20;;;;;;6261426;28;20021;-69
2023/09/28 06:49:46;;;;;;;7.35;4.35;;;21.40;65.10;;;;;;6253148;28;20594;-69
2023/09/28 06:52:46;;;;;;;5.85;4.05;;;21.40;65.20;;;;;;6262610;28;20025;-68
2023/09/28 06:55:47;;;;;;;5.88;4.10;;;21.40;65.20;;;;;;6259153;28;20503;-69
2023/09/28 06:58:50;;;;;;;7.28;4.25;;;21.40;65.20;;;;;;6268519;28;20479;-68
2023/09/28 07:01:51;;;;;;;5.72;4.28;;;21.40;65.20;;;;;;6268430;28;20116;-68
2023/09/28 07:04:52;;;;;;;5.35;3.92;;;21.40;65.20;;;;;;6260281;28;20404;-69
2023/09/28 07:07:52;;;;;;;6.80;4.45;;;21.40;65.30;;;;;;6267862;28;20065;-69
2023/09/28 07:10:53;;;;;;;6.30;4.10;;;21.40;65.30;;;;;;6264616;28;20063;-68
2023/09/28 07:13:54;;;;;;;7.57;4.47;;;21.40;65.30;;;;;;6265914;28;20506;-69
2023/09/28 07:16:55;;;;;;;6.32;4.57;;;21.40;65.30;;;;;;6266129;28;20029;-69
2023/09/28 07:19:56;;;;;;;6.55;4.20;;;21.40;65.30;;;;;;6256074;28;20451;-69
2023/09/28 07:22:57;;;;;;;5.38;3.83;;;21.40;65.30;;;;;;6264466;28;20539;-69
2023/09/28 07:26:00;;;;;;;5.28;4.10;;;21.40;65.50;;;;;;6273589;28;20035;-68
2023/09/28 07:29:01;;;;;;;5.22;3.65;;;21.40;65.40;;;;;;6265406;28;20075;-68
2023/09/28 07:32:02;;;;;;;5.28;4.20;;;21.40;65.50;;;;;;6266000;28;20029;-68
2023/09/28 07:35:03;;;;;;;6.00;3.90;;;21.40;65.50;;;;;;6263362;28;20036;-69
2023/09/28 07:38:04;;;;;;;6.20;3.90;;;21.40;65.40;;;;;;6264958;28;20546;-69
2023/09/28 07:41:05;;;;;;;6.15;3.80;;;21.40;65.60;;;;;;6273607;28;20025;-69
2023/09/28 07:44:05;;;;;;;4.40;3.47;;;21.40;65.60;;;;;;6262359;28;20025;-69
2023/09/28 07:47:08;;;;;;;4.82;3.28;;;21.40;65.60;;;;;;6258592;28;20033;-69
2023/09/28 07:50:14;;;;;;;8.77;3.65;;;21.40;65.60;;;;;;6271255;28;20439;-69
2023/09/28 07:53:15;;;;;;;4.88;4.05;;;21.40;65.60;;;;;;6266920;28;20029;-69
2023/09/28 07:56:18;;;;;;;5.05;4.13;;;21.40;65.60;;;;;;6256323;28;20024;-69
2023/09/28 07:59:20;;;;;;;5.10;3.95;;;21.40;65.60;;;;;;6270923;28;20049;-69
2023/09/28 08:02:22;;;;;;;4.93;4.00;;;21.40;65.60;;;;;;6271850;28;20030;-69
2023/09/28 08:05:22;;;;;;;6.63;3.67;;;21.40;65.60;;;;;;6272166;28;20025;-69
2023/09/28 08:08:24;;;;;;;5.90;3.75;;;21.40;65.60;;;;;;6262991;28;20028;-69
2023/09/28 08:11:24;;;;;;;5.70;3.45;;;21.40;65.60;;;;;;6268318;28;20057;-68
2023/09/28 08:14:25;;;;;;;4.57;3.55;;;21.40;65.70;;;;;;6268236;28;20018;-69
2023/09/28 08:17:26;;;;;;;4.75;3.58;;;21.40;65.60;;;;;;6260942;28;20022;-68
2023/09/28 08:20:26;;;;;;;4.50;3.28;;;21.40;65.60;;;;;;6258379;28;20026;-69
2023/09/28 08:23:28;;;;;;;5.05;3.78;;;21.40;65.70;;;;;;6268566;28;20021;-69
2023/09/28 08:26:33;;;;;;;4.32;3.50;;;21.40;65.70;;;;;;6271986;28;20025;-69
2023/09/28 08:29:34;;;;;;;3.70;3.22;;;21.40;65.70;;;;;;6267108;28;20037;-68
2023/09/28 08:32:35;;;;;;;4.72;3.45;;;21.40;66.60;;;;;;6254016;28;20434;-69
2023/09/28 08:35:36;;;;;;;5.20;3.78;;;21.40;65.70;;;;;;6252686;28;20036;-69
2023/09/28 08:38:37;;;;;;;5.13;3.53;;;21.40;65.80;;;;;;6262310;28;20091;-69
2023/09/28 08:41:43;;;;;;;4.47;3.45;;;21.40;65.80;;;;;;6257905;28;20503;-69
2023/09/28 08:44:45;;;;;;;5.45;3.90;;;21.40;65.80;;;;;;6257091;28;20031;-68
2023/09/28 08:47:52;;;;;;;4.10;3.08;;;21.40;65.80;;;;;;6260725;28;20113;-69
2023/09/28 08:51:03;;;;;;;3.85;3.22;;;21.40;65.80;;;;;;6269726;28;20028;-69
2023/09/28 08:54:05;;;;;;;4.80;3.63;;;21.40;65.80;;;;;;6270772;28;20028;-69
2023/09/28 08:57:06;;;;;;;3.85;3.40;;;21.40;65.80;;;;;;6255057;28;20021;-69
2023/09/28 09:00:13;;;;;;;4.82;3.65;;;21.40;65.80;;;;;;6262046;28;20392;-68
2023/09/28 09:03:14;;;;;;;4.07;3.42;;;21.40;65.80;;;;;;6263411;28;20063;-69
2023/09/28 09:06:15;;;;;;;3.72;3.13;;;21.40;65.80;;;;;;6258520;28;20080;-69
2023/09/28 09:09:18;;;;;;;4.25;3.10;;;21.40;65.80;;;;;;6268525;28;20029;-69
2023/09/28 09:12:19;;;;;;;3.63;3.10;;;21.40;65.80;;;;;;6260059;28;20021;-69
2023/09/28 09:15:20;;;;;;;4.18;3.30;;;21.40;65.80;;;;;;6263434;28;20047;-69
2023/09/28 09:18:24;;;;;;;4.03;3.25;;;21.40;65.80;;;;;;6264939;28;20070;-69
2023/09/28 09:21:25;;;;;;;4.13;3.28;;;21.40;65.80;;;;;;6259057;28;20040;-69
2023/09/28 09:24:26;;;;;;;4.25;3.20;;;21.40;65.80;;;;;;6267024;28;20057;-69
2023/09/28 09:27:32;;;;;;;5.05;3.28;;;21.40;66.70;;;;;;6248988;28;20025;-69
2023/09/28 09:30:37;;;;;;;4.15;3.30;;;21.40;65.90;;;;;;6261184;28;20113;-69
2023/09/28 09:33:37;;;;;;;4.13;3.03;;;21.40;65.90;;;;;;6260277;28;20021;-69
2023/09/28 09:36:39;;;;;;;4.30;2.90;;;21.40;65.90;;;;;;6261071;28;20074;-69
2023/09/28 09:39:40;;;;;;;4.00;2.80;;;21.40;66.00;;;;;;6264586;28;20124;-69
2023/09/28 09:42:41;;;;;;;3.50;3.10;;;21.40;66.00;;;;;;6262326;28;20031;-69
2023/09/28 09:45:42;;;;;;;3.22;2.80;;;21.40;65.90;;;;;;6254151;28;20017;-69
2023/09/28 09:48:44;;;;;;;3.25;2.80;;;21.40;65.90;;;;;;6262331;28;20021;-69
2023/09/28 09:51:47;;;;;;;3.53;2.90;;;21.40;66.00;;;;;;6257642;28;20036;-69
2023/09/28 09:54:48;;;;;;;3.80;3.00;;;21.40;66.00;;;;;;6254140;28;20021;-69
2023/09/28 09:57:59;;;;;;;4.30;3.15;;;21.40;66.00;;;;;;6268880;28;20079;-69
2023/09/28 10:01:01;;;;;;;3.22;2.60;;;21.40;65.90;;;;;;6253436;28;20029;-69
2023/09/28 10:04:05;;;;;;;3.40;2.80;;;21.40;65.90;;;;;;6270202;28;20021;-69
2023/09/28 10:07:09;;;;;;;3.58;2.85;;;21.40;65.90;;;;;;6268696;28;20340;-69
2023/09/28 10:10:12;;;;;;;3.85;3.03;;;21.40;65.90;;;;;;6261625;28;20568;-68
2023/09/28 10:13:13;;;;;;;3.00;2.58;;;21.40;65.90;;;;;;6262055;28;20163;-69
2023/09/28 10:16:17;;;;;;;3.00;2.65;;;21.40;66.00;;;;;;6268779;28;20369;-69
2023/09/28 10:19:21;;;;;;;3.47;2.90;;;21.40;66.00;;;;;;6261926;28;20025;-69
2023/09/28 10:22:21;;;;;;;3.33;2.90;;;21.40;66.00;;;;;;6261178;28;20025;-69
2023/09/28 10:25:23;;;;;;;3.47;2.72;;;21.40;66.00;;;;;;6265680;28;20443;-69
2023/09/28 10:28:24;;;;;;;3.20;2.72;;;21.40;66.00;;;;;;6269065;28;20128;-69
2023/09/28 10:31:28;;;;;;;3.03;2.63;;;21.40;66.10;;;;;;6268766;28;20064;-69
2023/09/28 10:34:30;;;;;;;4.38;3.15;;;21.40;66.00;;;;;;6270224;28;20508;-69
2023/09/28 10:37:33;;;;;;;3.13;2.67;;;21.40;66.00;;;;;;6260070;28;20021;-69
2023/09/28 10:40:34;;;;;;;2.80;2.50;;;21.40;66.00;;;;;;6261787;28;20029;-69
2023/09/28 10:43:40;;;;;;;3.25;2.70;;;21.40;66.00;;;;;;6270556;28;20040;-69
2023/09/28 10:46:42;;;;;;;3.00;2.63;;;21.40;66.00;;;;;;6274604;28;20102;-69
2023/09/28 10:49:43;;;;;;;3.80;3.10;;;21.40;66.10;;;;;;6266495;28;20472;-68
2023/09/28 10:52:44;;;;;;;3.60;2.30;;;21.40;66.20;;;;;;6270512;28;20024;-69
2023/09/28 10:55:44;;;;;;;2.92;2.63;;;21.40;66.10;;;;;;6274663;28;20053;-69
2023/09/28 10:58:46;;;;;;;3.08;2.53;;;21.40;66.10;;;;;;6266268;28;20017;-69
2023/09/28 11:01:48;;;;;;;2.78;2.50;;;21.40;66.10;;;;;;6274293;28;20491;-69
2023/09/28 11:04:49;;;;;;;3.97;2.63;;;21.40;66.10;;;;;;6266026;28;20053;-69
2023/09/28 11:07:51;;;;;;;2.97;2.50;;;21.40;66.10;;;;;;6265985;28;20032;-69
2023/09/28 11:10:55;;;;;;;3.78;2.60;;;21.40;66.10;;;;;;6264499;28;20031;-69
2023/09/28 11:13:59;;;;;;;3.08;2.60;;;21.40;66.10;;;;;;6249652;28;20480;-69
2023/09/28 11:17:00;;;;;;;3.08;2.75;;;21.40;66.00;;;;;;6264460;28;20021;-69
2023/09/28 11:20:01;;;;;;;2.72;2.50;;;21.40;66.10;;;;;;6257875;28;20040;-69
2023/09/28 11:23:03;;;;;;;2.85;2.55;;;21.40;66.10;;;;;;6257518;28;20109;-69
2023/09/28 11:26:05;;;;;;;2.40;2.20;;;21.40;66.10;;;;;;6272444;28;20553;-69
2023/09/28 11:29:06;;;;;;;2.60;2.30;;;21.40;66.10;;;;;;6258608;28;20074;-69
2023/09/28 11:32:07;;;;;;;2.75;2.38;;;21.40;66.10;;;;;;6271644;28;20025;-68
2023/09/28 11:35:09;;;;;;;3.50;2.40;;;21.40;66.10;;;;;;6257410;28;20088;-69
2023/09/28 11:38:10;;;;;;;3.60;2.50;;;21.40;66.10;;;;;;6273343;28;20067;-69
2023/09/28 11:41:12;;;;;;;3.42;2.50;;;21.40;66.20;;;;;;6273302;28;20033;-69
2023/09/28 11:44:20;;;;;;;3.13;2.50;;;21.40;66.10;;;;;;6264065;28;20032;-69
2023/09/28 11:47:23;;;;;;;2.75;2.38;;;21.40;66.10;;;;;;6256505;28;20504;-69
2023/09/28 11:50:27;;;;;;;2.58;2.38;;;21.40;66.20;;;;;;6254864;28;20115;-69
2023/09/28 11:53:28;;;;;;;4.20;2.85;;;21.40;66.10;;;;;;6265059;28;20040;-68
2023/09/28 11:56:30;;;;;;;2.70;2.40;;;21.40;66.20;;;;;;6267257;28;20029;-69
2023/09/28 11:59:31;;;;;;;2.28;2.00;;;21.40;66.10;;;;;;6264674;28;20103;-69
2023/09/28 12:02:32;;;;;;;2.47;2.10;;;21.40;66.10;;;;;;6264964;28;20025;-68
2023/09/28 12:05:33;;;;;;;3.22;2.40;;;21.40;66.10;;;;;;6272873;28;20035;-69
2023/09/28 12:08:36;;;;;;;2.50;2.20;;;21.40;66.10;;;;;;6272485;28;20029;-69
2023/09/28 12:11:42;;;;;;;3.28;2.10;;;21.40;66.10;;;;;;6263974;28;20033;-69
2023/09/28 12:14:43;;;;;;;2.83;2.30;;;21.40;66.20;;;;;;6271320;28;20021;-69
2023/09/28 12:17:44;;;;;;;2.97;2.10;;;21.40;66.20;;;;;;6264343;28;20048;-68
2023/09/28 12:20:45;;;;;;;2.38;2.08;;;21.40;66.10;;;;;;6255683;28;20021;-68
2023/09/28 12:23:46;;;;;;;2.38;2.17;;;21.40;66.20;;;;;;6272368;28;20547;-70
2023/09/28 12:26:48;;;;;;;2.40;2.13;;;21.40;66.10;;;;;;6264087;28;20033;-68
2023/09/28 12:29:50;;;;;;;2.90;2.30;;;21.40;66.10;;;;;;6263641;28;20037;-69
2023/09/28 12:32:51;;;;;;;2.83;2.45;;;21.40;66.10;;;;;;6269637;28;20082;-69
2023/09/28 12:35:53;;;;;;;2.83;2.33;;;21.40;66.10;;;;;;6248081;28;20022;-69
2023/09/28 12:38:54;;;;;;;3.20;2.30;;;21.40;66.20;;;;;;6263347;28;20097;-69
2023/09/28 12:41:58;;;;;;;2.78;2.40;;;21.40;66.10;;;;;;6266125;28;20022;-69
2023/09/28 12:44:59;;;;;;;2.92;2.00;;;21.40;66.10;;;;;;6255338;28;20096;-68
2023/09/28 12:48:02;;;;;;;3.00;2.22;;;21.40;66.10;;;;;;6262315;28;20055;-68
2023/09/28 12:51:03;;;;;;;2.22;1.95;;;21.40;66.10;;;;;;6265303;28;20096;-69
2023/09/28 12:54:05;;;;;;;3.08;2.28;;;21.40;66.10;;;;;;6255435;28;20507;-69
2023/09/28 12:57:07;;;;;;;2.63;2.33;;;21.40;66.10;;;;;;6256894;28;20484;-69
2023/09/28 13:00:10;;;;;;;2.38;2.03;;;21.40;66.20;;;;;;6261887;28;20468;-69
2023/09/28 13:03:11;;;;;;;2.13;1.92;;;21.40;66.10;;;;;;6263805;28;20123;-69
2023/09/28 13:06:11;;;;;;;2.78;2.47;;;21.40;66.20;;;;;;6262996;28;20131;-68
2023/09/28 13:09:14;;;;;;;2.20;2.00;;;21.40;66.10;;;;;;6261014;28;20787;-68
2023/09/28 13:12:15;;;;;;;2.63;2.30;;;21.40;66.20;;;;;;6253318;28;20064;-69
2023/09/28 13:15:15;;;;;;;2.90;2.30;;;21.40;66.20;;;;;;6253693;28;20030;-69
2023/09/28 13:18:16;;;;;;;2.38;1.92;;;21.40;66.20;;;;;;6257172;28;20505;-69
2023/09/28 13:21:17;;;;;;;2.40;2.13;;;21.40;66.20;;;;;;6271265;28;20025;-68
2023/09/28 13:24:17;;;;;;;1.98;1.75;;;21.40;66.20;;;;;;6262625;28;20025;-69
2023/09/28 13:27:18;;;;;;;2.15;1.90;;;21.40;66.20;;;;;;6260122;28;20029;-69
2023/09/28 13:30:24;;;;;;;2.85;2.20;;;21.40;66.20;;;;;;6260840;28;20124;-69
2023/09/28 13:33:25;;;;;;;3.10;2.08;;;21.40;66.20;;;;;;6246145;28;20105;-69
2023/09/28 13:36:25;;;;;;;2.15;1.95;;;21.40;66.20;;;;;;6262059;28;20026;-69
2023/09/28 13:39:33;;;;;;;2.30;2.08;;;21.40;66.20;;;;;;6257975;28;20132;-69
2023/09/28 13:42:33;;;;;;;2.15;1.80;;;21.40;66.20;;;;;;6269497;28;20090;-68
2023/09/28 13:45:35;;;;;;;2.08;1.88;;;21.40;66.20;;;;;;6258475;28;20033;-69
2023/09/28 13:48:35;;;;;;;1.70;1.60;;;21.40;66.20;;;;;;6261267;28;20083;-69
2023/09/28 13:51:36;;;;;;;2.45;2.10;;;21.40;66.20;;;;;;6267664;28;20483;-69
2023/09/28 13:54:37;;;;;;;2.03;1.83;;;21.40;66.20;;;;;;6261724;28;20036;-69
2023/09/28 13:57:39;;;;;;;2.08;1.80;;;21.40;66.20;;;;;;6269445;28;20025;-69
2023/09/28 14:00:44;;;;;;;2.40;1.90;;;21.40;66.20;;;;;;6255856;28;20071;-69
2023/09/28 14:03:45;;;;;;;;;;;21.40;66.30;;;;;;6260529;28;20100;-69
2023/09/28 14:06:46;;;;;;;2.20;2.00;;;21.40;66.20;;;;;;6261842;28;19911;-69
2023/09/28 14:09:48;;;;;;;2.10;1.90;;;21.40;66.20;;;;;;6252194;28;20044;-69
2023/09/28 14:12:49;;;;;;;1.95;1.70;;;21.40;66.20;;;;;;6261465;28;20545;-69
2023/09/28 14:15:50;;;;;;;2.03;1.83;;;21.40;66.30;;;;;;6267256;28;20029;-69
2023/09/28 14:18:52;;;;;;;2.78;2.00;;;21.40;66.30;;;;;;6265001;28;20052;-69
2023/09/28 14:21:53;;;;;;;2.28;1.98;;;21.40;66.40;;;;;;6253754;28;20562;-69
2023/09/28 14:24:53;;;;;;;1.98;1.77;;;21.40;66.30;;;;;;6261751;28;20108;-69
2023/09/28 14:27:54;;;;;;;2.00;1.80;;;21.40;66.20;;;;;;6261373;28;20029;-69
2023/09/28 14:30:55;;;;;;;2.08;1.88;;;21.40;66.30;;;;;;6253291;28;20377;-69
2023/09/28 14:33:55;;;;;;;1.80;1.63;;;21.40;66.30;;;;;;6261694;28;20032;-68
2023/09/28 14:36:56;;;;;;;1.92;1.70;;;21.40;66.20;;;;;;6261400;28;20020;-69
2023/09/28 14:39:58;;;;;;;2.10;1.90;;;21.40;66.20;;;;;;6260483;28;20128;-68
2023/09/28 14:43:01;;;;;;;2.15;1.80;;;21.40;66.20;;;;;;6261382;28;20075;-68
2023/09/28 14:46:03;;;;;;;1.55;1.45;;;21.40;66.20;;;;;;6260118;28;20049;-69
2023/09/28 14:49:04;;;;;;;2.47;2.08;;;21.40;66.20;;;;;;6269590;28;20036;-69
2023/09/28 14:52:04;;;;;;;1.80;1.60;;;21.40;66.20;;;;;;6265188;28;20049;-69
2023/09/28 14:55:06;;;;;;;1.77;1.50;;;21.40;66.20;;;;;;6269771;28;20024;-69
2023/09/28 14:58:07;;;;;;;2.13;1.63;;;21.40;66.20;;;;;;6258212;28;20408;-69
2023/09/28 15:01:08;;;;;;;1.45;1.35;;;21.40;66.20;;;;;;6254402;28;20026;-69
2023/09/28 15:04:08;;;;;;;1.92;1.67;;;21.40;66.20;;;;;;6269274;28;20017;-68
2023/09/28 15:07:11;;;;;;;1.83;1.67;;;21.40;66.20;;;;;;6261264;28;20026;-69
2023/09/28 15:10:12;;;;;;;1.80;1.60;;;21.40;66.20;;;;;;6259705;28;20522;-68
2023/09/28 15:13:13;;;;;;;1.98;1.77;;;21.40;66.20;;;;;;6266855;28;20044;-68
2023/09/28 15:16:14;;;;;;;2.28;1.83;;;21.40;66.20;;;;;;6262418;28;20420;-69
2023/09/28 15:19:15;;;;;;;2.03;1.70;;;21.40;66.20;;;;;;6260714;28;20052;-68
2023/09/28 15:22:15;;;;;;;1.73;1.50;;;21.40;66.30;;;;;;6259334;28;20053;-68
2023/09/28 15:25:16;;;;;;;2.00;1.80;;;21.40;66.30;;;;;;6256554;28;20033;-69
2023/09/28 15:28:17;;;;;;;1.83;1.40;;;21.40;66.20;;;;;;6263613;28;20107;-69
2023/09/28 15:31:17;;;;;;;1.70;1.60;;;21.40;66.40;;;;;;6272025;28;20120;-68
2023/09/28 15:34:19;;;;;;;1.40;1.30;;;21.40;66.30;;;;;;6264001;28;20032;-69
2023/09/28 15:37:21;;;;;;;1.90;1.70;;;21.40;66.30;;;;;;6256473;28;20025;-69
2023/09/28 15:40:21;;;;;;;2.08;1.88;;;21.40;66.30;;;;;;6260460;28;20025;-69
2023/09/28 15:43:22;;;;;;;1.75;1.65;;;21.40;66.30;;;;;;6262121;28;20443;-68
2023/09/28 15:46:23;;;;;;;1.80;1.70;;;21.40;66.30;;;;;;6268021;28;20511;-69